createdAt,value
2022-11-23T00:00:34.239Z,43.18
2022-11-23T00:01:34.279Z,43.67
2022-11-23T00:02:34.394Z,43.18
2022-11-23T00:03:34.205Z,43.18
2022-11-23T00:04:34.224Z,43.51
2022-11-23T00:05:34.240Z,44.15
2022-11-23T00:06:34.206Z,43.99
2022-11-23T00:07:34.258Z,43.67
2022-11-23T00:08:34.178Z,43.67
2022-11-23T00:09:34.345Z,43.83
2022-11-23T00:10:34.182Z,44.63
2022-11-23T00:11:34.167Z,44.47
2022-11-23T00:12:34.167Z,44.63
2022-11-23T00:13:34.775Z,44.63
2022-11-23T00:14:34.164Z,43.67
2022-11-23T00:15:34.159Z,43.83
2022-11-23T00:16:34.130Z,44.15
2022-11-23T00:17:34.129Z,43.34
2022-11-23T00:18:34.118Z,43.18
2022-11-23T00:19:34.307Z,43.67
2022-11-23T00:20:34.104Z,43.83
2022-11-23T00:21:34.768Z,44.31
2022-11-23T00:22:34.075Z,43.51
2022-11-23T00:23:34.116Z,43.51
2022-11-23T00:24:34.165Z,43.51
2022-11-23T00:25:34.050Z,43.67
2022-11-23T00:26:34.083Z,43.34
2022-11-23T00:27:34.148Z,43.83
2022-11-23T00:28:34.016Z,43.83
2022-11-23T00:29:34.216Z,44.15
2022-11-23T00:30:34.681Z,43.67
2022-11-23T00:31:34.011Z,43.51
2022-11-23T00:32:34.045Z,44.47
2022-11-23T00:33:34.011Z,43.99
2022-11-23T00:34:33.996Z,44.31
2022-11-23T00:36:05.906Z,44.31
2022-11-23T00:36:34.004Z,43.51
2022-11-23T00:37:33.959Z,43.34
2022-11-23T00:38:34.030Z,43.67
2022-11-23T00:39:34.123Z,43.18
2022-11-23T00:40:33.956Z,43.51
2022-11-23T00:41:33.951Z,44.31
2022-11-23T00:42:38.089Z,43.83
2022-11-23T00:43:34.910Z,43.51
2022-11-23T00:44:33.934Z,43.34
2022-11-23T00:45:33.902Z,43.18
2022-11-23T00:46:33.893Z,43.34
2022-11-23T00:47:33.878Z,43.67
2022-11-23T00:48:33.909Z,43.67
2022-11-23T00:49:34.033Z,43.67
2022-11-23T00:50:33.906Z,43.83
2022-11-23T00:51:33.863Z,44.15
2022-11-23T00:52:35.809Z,44.31
2022-11-23T00:53:33.844Z,43.83
2022-11-23T00:54:33.841Z,43.67
2022-11-23T00:55:33.836Z,45.76
2022-11-23T00:56:33.900Z,43.83
2022-11-23T00:57:33.814Z,44.15
2022-11-23T00:58:33.818Z,44.96
2022-11-23T00:59:34.136Z,44.79
2022-11-23T01:00:33.786Z,44.63
2022-11-23T01:01:34.045Z,43.83
2022-11-23T01:02:33.777Z,43.34
2022-11-23T01:03:33.765Z,44.15
2022-11-23T01:04:33.763Z,46.41
2022-11-23T01:05:33.760Z,44.47
2022-11-23T01:06:33.753Z,44.31
2022-11-23T01:07:33.814Z,43.51
2022-11-23T01:08:33.760Z,43.83
2022-11-23T01:09:33.949Z,44.15
2022-11-23T01:10:33.699Z,44.31
2022-11-23T01:11:33.699Z,45.12
2022-11-23T01:12:33.695Z,45.28
2022-11-23T01:13:33.707Z,48.66
2022-11-23T01:14:33.702Z,43.67
2022-11-23T01:15:33.680Z,43.67
2022-11-23T01:16:33.702Z,44.15
2022-11-23T01:17:33.660Z,45.28
2022-11-23T01:18:33.677Z,43.67
2022-11-23T01:19:33.974Z,44.15
2022-11-23T01:20:33.646Z,44.47
2022-11-23T01:21:33.643Z,44.47
2022-11-23T01:22:33.640Z,44.63
2022-11-23T01:23:33.640Z,44.63
2022-11-23T01:24:33.650Z,44.15
2022-11-23T01:25:33.608Z,43.83
2022-11-23T01:26:33.676Z,43.67
2022-11-23T01:27:33.605Z,43.67
2022-11-23T01:28:33.580Z,43.51
2022-11-23T01:29:33.813Z,43.67
2022-11-23T01:30:33.581Z,44.15
2022-11-23T01:31:33.570Z,43.51
2022-11-23T01:32:33.608Z,43.34
2022-11-23T01:33:33.542Z,43.34
2022-11-23T01:34:33.551Z,43.67
2022-11-23T01:35:33.557Z,46.73
2022-11-23T01:36:33.551Z,43.83
2022-11-23T01:37:33.526Z,43.67
2022-11-23T01:38:33.499Z,43.51
2022-11-23T01:39:33.861Z,43.34
2022-11-23T01:40:33.492Z,43.18
2022-11-23T01:41:33.526Z,43.34
2022-11-23T01:42:33.466Z,43.67
2022-11-23T01:43:33.466Z,43.83
2022-11-23T01:44:33.458Z,44.15
2022-11-23T01:45:33.476Z,45.28
2022-11-23T01:46:33.456Z,46.57
2022-11-23T01:47:33.439Z,44.63
2022-11-23T01:48:33.427Z,43.67
2022-11-23T01:49:33.676Z,43.18
2022-11-23T01:50:33.420Z,43.34
2022-11-23T01:51:33.427Z,43.51
2022-11-23T01:52:33.454Z,43.34
2022-11-23T01:53:33.388Z,43.34
2022-11-23T01:54:33.840Z,43.67
2022-11-23T01:55:33.364Z,43.83
2022-11-23T01:56:33.361Z,44.47
2022-11-23T01:57:33.386Z,43.83
2022-11-23T01:58:33.349Z,43.83
2022-11-23T01:59:33.833Z,43.34
2022-11-23T02:00:33.339Z,43.18
2022-11-23T02:01:33.406Z,43.34
2022-11-23T02:02:33.356Z,43.51
2022-11-23T02:03:33.313Z,43.83
2022-11-23T02:04:33.292Z,44.31
2022-11-23T02:05:33.284Z,43.99
2022-11-23T02:06:33.290Z,45.12
2022-11-23T02:07:33.286Z,43.67
2022-11-23T02:08:33.300Z,43.83
2022-11-23T02:09:33.560Z,44.63
2022-11-23T02:10:33.272Z,45.28
2022-11-23T02:11:33.231Z,46.57
2022-11-23T02:12:33.228Z,45.12
2022-11-23T02:13:33.234Z,44.96
2022-11-23T02:14:33.209Z,44.15
2022-11-23T02:15:33.219Z,43.83
2022-11-23T02:16:33.222Z,44.96
2022-11-23T02:17:33.200Z,44.15
2022-11-23T02:18:33.186Z,44.47
2022-11-23T02:19:33.552Z,43.83
2022-11-23T02:20:33.170Z,43.51
2022-11-23T02:21:33.188Z,43.34
2022-11-23T02:22:33.164Z,44.63
2022-11-23T02:23:33.176Z,44.47
2022-11-23T02:24:33.140Z,43.83
2022-11-23T02:25:33.131Z,43.83
2022-11-23T02:26:33.147Z,43.83
2022-11-23T02:27:33.133Z,44.15
2022-11-23T02:28:33.105Z,43.99
2022-11-23T02:30:05.056Z,43.83
2022-11-23T02:30:33.135Z,43.34
2022-11-23T02:31:33.113Z,43.34
2022-11-23T02:32:33.117Z,43.18
2022-11-23T02:33:33.101Z,43.51
2022-11-23T02:34:33.079Z,44.47
2022-11-23T02:35:33.051Z,44.63
2022-11-23T02:36:33.037Z,44.63
2022-11-23T02:37:33.060Z,44.47
2022-11-23T02:39:04.979Z,43.18
2022-11-23T02:39:33.189Z,43.83
2022-11-23T02:40:33.020Z,43.67
2022-11-23T02:41:33.030Z,43.51
2022-11-23T02:43:06.025Z,43.67
2022-11-23T02:43:33.528Z,45.12
2022-11-23T02:47:37.681Z,43.18
2022-11-23T02:48:30.611Z,43.34
2022-11-23T02:49:30.956Z,50.11
2022-11-23T02:50:31.791Z,45.60
2022-11-23T02:51:31.700Z,47.21
2022-11-23T02:52:31.763Z,44.15
2022-11-23T02:53:31.783Z,44.47
2022-11-23T02:54:31.695Z,43.83
2022-11-23T02:55:31.698Z,44.15
2022-11-23T02:56:31.668Z,43.51
2022-11-23T02:57:31.677Z,43.51
2022-11-23T02:58:31.651Z,43.67
2022-11-23T02:59:31.894Z,43.83
2022-11-23T03:00:31.679Z,43.67
2022-11-23T03:01:31.630Z,43.51
2022-11-23T03:02:31.644Z,43.99
2022-11-23T03:03:31.615Z,44.79
2022-11-23T03:04:31.646Z,44.79
2022-11-23T03:05:31.645Z,44.79
2022-11-23T03:06:31.612Z,44.79
2022-11-23T03:07:31.682Z,44.47
2022-11-23T03:08:31.608Z,44.31
2022-11-23T03:09:31.849Z,43.34
2022-11-23T03:10:31.572Z,43.34
2022-11-23T03:11:31.559Z,43.83
2022-11-23T03:12:31.566Z,44.63
2022-11-23T03:13:31.544Z,43.99
2022-11-23T03:14:31.574Z,43.83
2022-11-23T03:15:31.548Z,44.47
2022-11-23T03:16:31.563Z,43.67
2022-11-23T03:17:31.556Z,43.18
2022-11-23T03:18:31.507Z,43.51
2022-11-23T03:19:31.754Z,43.67
2022-11-23T03:20:31.530Z,43.67
2022-11-23T03:21:31.492Z,43.83
2022-11-23T03:22:31.501Z,43.18
2022-11-23T03:23:31.475Z,43.51
2022-11-23T03:24:31.509Z,43.67
2022-11-23T03:25:31.477Z,45.60
2022-11-23T03:26:31.470Z,43.83
2022-11-23T03:27:31.471Z,43.83
2022-11-23T03:28:31.445Z,44.79
2022-11-23T03:29:31.705Z,46.08
2022-11-23T03:30:31.416Z,45.44
2022-11-23T03:31:31.421Z,44.63
2022-11-23T03:32:31.458Z,44.96
2022-11-23T03:33:31.398Z,43.34
2022-11-23T03:34:31.387Z,43.99
2022-11-23T03:35:31.369Z,43.83
2022-11-23T03:36:31.394Z,45.28
2022-11-23T03:37:31.379Z,46.73
2022-11-23T03:39:03.286Z,44.15
2022-11-23T03:39:31.561Z,43.67
2022-11-23T03:40:31.360Z,43.51
2022-11-23T03:41:31.321Z,44.63
2022-11-23T03:42:31.353Z,43.99
2022-11-23T03:43:31.363Z,44.15
2022-11-23T03:44:31.378Z,43.99
2022-11-23T03:45:31.344Z,44.15
2022-11-23T03:46:31.340Z,45.76
2022-11-23T03:47:31.279Z,43.51
2022-11-23T04:04:06.198Z,44.79
2022-11-23T04:05:06.222Z,44.47
2022-11-23T04:06:07.338Z,45.28
2022-11-23T04:07:07.366Z,44.96
2022-11-23T04:08:07.926Z,45.28
2022-11-23T04:09:07.310Z,51.40
2022-11-23T04:10:07.292Z,45.92
2022-11-23T04:11:07.305Z,47.70
2022-11-23T04:12:07.305Z,44.31
2022-11-23T04:13:07.284Z,44.63
2022-11-23T04:14:07.262Z,45.76
2022-11-23T04:15:07.252Z,44.96
2022-11-23T04:16:07.304Z,44.31
2022-11-23T04:17:07.255Z,44.31
2022-11-23T04:18:07.247Z,44.31
2022-11-23T04:19:07.258Z,44.47
2022-11-23T04:20:07.251Z,44.63
2022-11-23T04:21:07.217Z,47.21
2022-11-23T04:22:07.202Z,45.92
2022-11-23T04:23:12.869Z,47.21
2022-11-23T04:24:09.186Z,48.82
2022-11-23T04:25:07.213Z,46.25
2022-11-23T04:26:07.171Z,48.98
2022-11-23T04:27:07.157Z,49.95
2022-11-23T04:28:07.165Z,54.62
2022-11-23T04:29:07.224Z,45.92
2022-11-23T04:30:07.210Z,45.60
2022-11-23T04:31:07.152Z,49.95
2022-11-23T04:32:07.193Z,44.79
2022-11-23T04:33:07.121Z,49.15
2022-11-23T04:34:07.128Z,47.05
2022-11-23T04:35:07.114Z,47.86
2022-11-23T04:36:07.121Z,50.43
2022-11-23T04:37:12.863Z,53.17
2022-11-23T04:38:09.104Z,49.95
2022-11-23T04:39:07.096Z,49.79
2022-11-23T04:40:07.062Z,61.55
2022-11-23T04:41:07.115Z,55.75
2022-11-23T04:42:07.087Z,48.18
2022-11-23T04:43:07.088Z,48.98
2022-11-23T04:44:07.086Z,53.98
2022-11-23T04:45:07.049Z,46.25
2022-11-23T04:46:07.067Z,52.05
2022-11-23T04:47:07.032Z,48.50
2022-11-23T04:48:07.061Z,56.24
2022-11-23T04:49:07.002Z,46.73
2022-11-23T04:50:07.005Z,47.21
2022-11-23T04:51:07.019Z,47.86
2022-11-23T04:52:07.006Z,47.21
2022-11-23T04:53:06.998Z,46.08
2022-11-23T04:54:06.959Z,46.89
2022-11-23T04:55:06.954Z,44.79
2022-11-23T04:56:06.963Z,46.25
2022-11-23T04:57:06.955Z,57.20
2022-11-23T04:58:06.956Z,52.05
2022-11-23T04:59:06.920Z,44.15
2022-11-23T05:00:06.926Z,44.15
2022-11-23T05:01:07.018Z,47.37
2022-11-23T05:02:06.962Z,48.34
2022-11-23T05:03:06.885Z,44.79
2022-11-23T05:04:06.883Z,46.08
2022-11-23T05:05:06.880Z,44.63
2022-11-23T05:06:06.886Z,51.24
2022-11-23T05:07:06.934Z,47.21
2022-11-23T05:08:06.871Z,49.95
2022-11-23T05:09:06.846Z,56.07
2022-11-23T05:10:06.868Z,56.72
2022-11-23T05:11:06.848Z,53.66
2022-11-23T05:12:06.836Z,50.43
2022-11-23T05:13:07.812Z,48.02
2022-11-23T05:14:06.806Z,51.88
2022-11-23T05:15:06.802Z,55.27
2022-11-23T05:16:06.787Z,52.85
2022-11-23T05:17:06.811Z,56.24
2022-11-23T05:18:06.831Z,46.25
2022-11-23T05:19:06.825Z,48.34
2022-11-23T05:20:06.769Z,61.55
2022-11-23T05:21:06.749Z,53.66
2022-11-23T05:22:06.745Z,48.98
2022-11-23T05:23:06.764Z,50.92
2022-11-23T05:24:06.750Z,53.98
2022-11-23T05:25:06.769Z,46.41
2022-11-23T05:26:06.779Z,46.73
2022-11-23T05:27:06.697Z,61.23
2022-11-23T05:28:30.058Z,55.11
2022-11-23T05:29:08.697Z,57.52
2022-11-23T05:30:06.704Z,59.30
2022-11-23T05:31:06.694Z,49.47
2022-11-23T05:32:06.665Z,52.21
2022-11-23T05:33:07.653Z,55.27
2022-11-23T05:34:06.665Z,50.60
2022-11-23T05:35:06.685Z,55.11
2022-11-23T05:36:06.621Z,53.66
2022-11-23T05:37:06.778Z,51.56
2022-11-23T05:38:06.661Z,52.69
2022-11-23T05:39:06.620Z,57.20
2022-11-23T05:40:06.649Z,56.56
2022-11-23T05:41:06.669Z,65.74
2022-11-23T05:42:06.595Z,54.79
2022-11-23T05:43:06.586Z,52.05
2022-11-23T05:44:06.569Z,48.34
2022-11-23T05:45:11.276Z,52.37
2022-11-23T05:46:08.603Z,63.00
2022-11-23T05:47:06.615Z,51.88
2022-11-23T05:48:07.454Z,60.91
2022-11-23T05:49:06.532Z,53.33
2022-11-23T05:50:06.538Z,55.59
2022-11-23T05:51:06.542Z,59.14
2022-11-23T05:52:07.472Z,51.08
2022-11-23T05:53:06.642Z,56.88
2022-11-23T05:54:06.522Z,52.05
2022-11-23T05:55:06.508Z,55.43
2022-11-23T05:56:06.535Z,47.21
2022-11-23T05:57:06.468Z,59.14
2022-11-23T05:58:06.522Z,60.75
2022-11-23T05:59:06.470Z,55.91
2022-11-23T06:01:54.184Z,56.72
2022-11-23T06:02:54.208Z,56.24
2022-11-23T06:03:54.215Z,61.07
2022-11-23T06:04:54.170Z,57.04
2022-11-23T06:05:54.162Z,62.52
2022-11-23T06:06:54.151Z,58.81
2022-11-23T06:07:54.230Z,61.55
2022-11-23T06:08:54.111Z,60.91
2022-11-23T06:09:54.145Z,63.33
2022-11-23T06:10:54.128Z,61.39
2022-11-23T06:11:54.097Z,63.49
2022-11-23T06:12:54.124Z,60.10
2022-11-23T06:13:54.194Z,58.65
2022-11-23T06:14:54.079Z,60.26
2022-11-23T06:15:54.112Z,62.04
2022-11-23T06:16:54.073Z,55.59
2022-11-23T06:17:54.051Z,67.03
2022-11-23T06:18:54.167Z,55.59
2022-11-23T06:19:54.046Z,62.84
2022-11-23T06:20:54.035Z,63.81
2022-11-23T06:21:54.041Z,53.98
2022-11-23T06:22:54.104Z,66.71
2022-11-23T06:23:54.028Z,67.19
2022-11-23T06:24:54.004Z,67.35
2022-11-23T06:25:54.002Z,68.64
2022-11-23T06:26:53.975Z,56.72
2022-11-23T06:27:53.980Z,65.58
2022-11-23T06:28:54.015Z,66.55
2022-11-23T06:29:53.999Z,60.75
2022-11-23T06:30:54.055Z,65.90
2022-11-23T06:31:53.961Z,49.47
2022-11-23T06:32:53.934Z,62.52
2022-11-23T06:33:53.940Z,67.35
2022-11-23T06:34:59.383Z,63.16
2022-11-23T06:35:55.984Z,66.06
2022-11-23T06:36:53.912Z,65.42
2022-11-23T06:37:53.905Z,60.42
2022-11-23T06:38:53.904Z,68.00
2022-11-23T06:39:53.887Z,65.26
2022-11-23T06:40:53.885Z,52.53
2022-11-23T06:41:57.065Z,53.33
2022-11-23T06:42:55.901Z,65.42
2022-11-23T06:43:53.876Z,56.72
2022-11-23T06:44:53.884Z,66.71
2022-11-23T06:45:53.848Z,65.58
2022-11-23T06:46:53.871Z,56.07
2022-11-23T06:47:53.861Z,50.92
2022-11-23T06:48:53.880Z,61.23
2022-11-23T06:49:53.834Z,64.94
2022-11-23T06:50:53.811Z,65.74
2022-11-23T06:51:53.807Z,65.58
2022-11-23T06:52:53.800Z,67.03
2022-11-23T06:53:53.795Z,64.94
2022-11-23T06:54:53.767Z,59.78
2022-11-23T06:55:53.785Z,56.24
2022-11-23T06:56:53.758Z,54.62
2022-11-23T06:57:53.765Z,50.76
2022-11-23T06:58:53.797Z,52.05
2022-11-23T06:59:53.783Z,65.74
2022-11-23T07:00:53.952Z,59.94
2022-11-23T07:01:53.726Z,50.76
2022-11-23T07:02:53.799Z,48.34
2022-11-23T07:03:53.782Z,60.10
2022-11-23T07:04:53.715Z,49.47
2022-11-23T07:05:53.687Z,63.33
2022-11-23T07:06:53.671Z,63.97
2022-11-23T07:07:53.763Z,47.05
2022-11-23T07:08:53.700Z,50.76
2022-11-23T07:09:56.627Z,62.04
2022-11-23T07:10:54.683Z,65.42
2022-11-23T07:11:53.630Z,60.91
2022-11-23T07:12:53.648Z,60.91
2022-11-23T07:13:53.652Z,60.75
2022-11-23T07:14:53.712Z,66.39
2022-11-23T07:15:53.618Z,48.50
2022-11-23T07:16:53.608Z,56.07
2022-11-23T07:17:53.611Z,60.59
2022-11-23T07:18:53.616Z,54.62
2022-11-23T07:19:53.579Z,48.66
2022-11-23T07:20:53.582Z,51.88
2022-11-23T07:21:53.584Z,50.43
2022-11-23T07:22:53.559Z,51.08
2022-11-23T07:23:53.547Z,54.62
2022-11-23T07:24:53.546Z,52.85
2022-11-23T07:25:53.527Z,61.39
2022-11-23T07:26:53.538Z,63.16
2022-11-23T07:27:53.519Z,52.53
2022-11-23T07:28:53.547Z,51.72
2022-11-23T07:29:53.536Z,47.86
2022-11-23T07:30:53.519Z,62.84
2022-11-23T07:31:53.473Z,58.33
2022-11-23T07:32:53.560Z,50.76
2022-11-23T07:33:53.461Z,62.52
2022-11-23T07:34:53.479Z,51.40
2022-11-23T07:35:53.447Z,52.05
2022-11-23T07:36:55.854Z,47.21
2022-11-23T07:37:54.483Z,67.84
2022-11-23T07:38:53.455Z,48.50
2022-11-23T07:39:58.083Z,57.20
2022-11-23T07:40:54.412Z,56.24
2022-11-23T07:42:05.212Z,52.69
2022-11-23T07:42:55.391Z,48.18
2022-11-23T07:43:53.443Z,52.53
2022-11-23T07:44:53.388Z,57.52
2022-11-23T07:45:53.377Z,49.63
2022-11-23T07:46:53.377Z,49.63
2022-11-23T07:47:53.369Z,55.91
2022-11-23T07:48:53.383Z,60.26
2022-11-23T07:49:53.354Z,60.91
2022-11-23T07:50:53.352Z,48.02
2022-11-23T07:51:53.331Z,48.34
2022-11-23T07:52:53.325Z,51.08
2022-11-23T07:53:54.305Z,57.52
2022-11-23T07:54:53.373Z,56.56
2022-11-23T07:55:53.310Z,53.82
2022-11-23T07:56:53.288Z,56.07
2022-11-23T07:57:53.291Z,57.04
2022-11-23T07:58:53.312Z,49.95
2022-11-23T07:59:53.287Z,47.53
2022-11-23T08:00:53.283Z,51.40
2022-11-23T08:01:58.372Z,57.20
2022-11-23T08:03:26.268Z,59.62
2022-11-23T08:03:55.256Z,57.69
2022-11-23T08:04:53.248Z,66.87
2022-11-23T08:05:53.232Z,50.43
2022-11-23T08:06:53.208Z,46.08
2022-11-23T08:07:53.205Z,58.33
2022-11-23T08:08:53.211Z,51.88
2022-11-23T08:09:53.223Z,59.78
2022-11-23T08:10:54.321Z,61.07
2022-11-23T08:11:54.197Z,55.27
2022-11-23T08:12:53.192Z,56.72
2022-11-23T08:13:53.177Z,57.85
2022-11-23T08:14:53.159Z,59.62
2022-11-23T08:15:55.795Z,55.59
2022-11-23T08:16:54.130Z,52.69
2022-11-23T08:17:53.129Z,48.18
2022-11-23T08:18:53.134Z,49.95
2022-11-23T08:19:53.115Z,50.11
2022-11-23T08:20:53.105Z,55.91
2022-11-23T08:21:53.097Z,47.05
2022-11-23T08:22:53.113Z,47.37
2022-11-23T08:23:53.164Z,52.05
2022-11-23T08:24:53.105Z,59.78
2022-11-23T08:25:53.078Z,54.62
2022-11-23T08:26:53.086Z,54.62
2022-11-23T08:27:53.084Z,46.41
2022-11-23T08:29:25.113Z,50.92
2022-11-23T08:29:53.811Z,54.62
2022-11-23T08:30:53.063Z,54.62
2022-11-23T08:31:53.025Z,62.04
2022-11-23T08:32:53.059Z,56.72
2022-11-23T08:33:53.055Z,52.53
2022-11-23T08:34:53.001Z,47.37
2022-11-23T08:35:53.018Z,49.15
2022-11-23T08:36:52.970Z,47.86
2022-11-23T08:37:52.984Z,48.98
2022-11-23T08:38:52.959Z,50.76
2022-11-23T08:39:52.939Z,56.07
2022-11-23T08:40:52.969Z,61.55
2022-11-23T08:41:52.934Z,57.36
2022-11-23T08:42:53.947Z,58.33
2022-11-23T08:43:52.938Z,58.97
2022-11-23T08:44:53.001Z,46.89
2022-11-23T08:45:52.939Z,49.95
2022-11-23T08:46:52.897Z,52.21
2022-11-23T08:47:52.929Z,57.85
2022-11-23T08:48:52.913Z,66.39
2022-11-23T08:49:52.901Z,56.56
2022-11-23T08:50:52.936Z,54.79
2022-11-23T08:51:52.874Z,59.78
2022-11-23T08:52:52.863Z,58.01
2022-11-23T08:53:52.878Z,58.97
2022-11-23T08:54:52.865Z,62.52
2022-11-23T08:55:52.837Z,59.14
2022-11-23T08:56:52.825Z,48.02
2022-11-23T08:57:52.854Z,53.33
2022-11-23T08:58:52.818Z,54.62
2022-11-23T08:59:52.820Z,55.43
2022-11-23T09:00:52.792Z,52.69
2022-11-23T09:01:52.841Z,61.55
2022-11-23T09:02:52.770Z,49.79
2022-11-23T09:03:52.780Z,47.70
2022-11-23T09:04:52.754Z,52.21
2022-11-23T09:05:52.779Z,55.11
2022-11-23T09:06:52.839Z,59.14
2022-11-23T09:07:52.828Z,56.88
2022-11-23T09:08:52.770Z,61.07
2022-11-23T09:09:52.753Z,56.56
2022-11-23T09:10:52.813Z,55.91
2022-11-23T09:11:52.696Z,55.75
2022-11-23T09:12:52.696Z,60.59
2022-11-23T09:13:52.700Z,62.04
2022-11-23T09:14:52.727Z,51.24
2022-11-23T09:15:52.698Z,57.85
2022-11-23T09:16:52.671Z,57.20
2022-11-23T09:17:52.678Z,55.59
2022-11-23T09:18:52.658Z,51.56
2022-11-23T09:19:52.660Z,48.82
2022-11-23T09:20:52.658Z,61.23
2022-11-23T09:21:52.625Z,49.31
2022-11-23T09:22:52.625Z,53.66
2022-11-23T09:23:52.606Z,49.47
2022-11-23T09:24:52.654Z,50.76
2022-11-23T09:25:52.602Z,54.14
2022-11-23T09:26:52.643Z,61.07
2022-11-23T09:27:52.610Z,53.33
2022-11-23T09:28:52.582Z,61.71
2022-11-23T09:29:52.593Z,53.66
2022-11-23T09:30:52.598Z,49.31
2022-11-23T09:31:52.560Z,51.24
2022-11-23T09:32:52.553Z,49.47
2022-11-23T09:33:52.546Z,52.05
2022-11-23T09:34:52.527Z,52.53
2022-11-23T09:35:52.534Z,61.23
2022-11-23T09:36:52.543Z,61.87
2022-11-23T09:37:52.538Z,51.24
2022-11-23T09:38:56.635Z,52.37
2022-11-23T09:39:53.511Z,64.13
2022-11-23T09:40:57.626Z,57.69
2022-11-23T09:41:54.467Z,60.10
2022-11-23T09:42:52.547Z,62.84
2022-11-23T09:43:52.602Z,51.72
2022-11-23T09:44:52.500Z,52.69
2022-11-23T09:45:52.453Z,59.30
2022-11-23T09:46:52.459Z,57.20
2022-11-23T09:47:52.465Z,54.62
2022-11-23T09:48:52.420Z,58.17
2022-11-23T09:49:52.403Z,57.04
2022-11-23T09:50:52.396Z,49.63
2022-11-23T09:51:52.421Z,59.94
2022-11-23T09:52:52.385Z,57.36
2022-11-23T09:53:52.405Z,48.98
2022-11-23T09:54:52.450Z,46.73
2022-11-23T09:55:52.356Z,53.01
2022-11-23T09:56:54.865Z,57.69
2022-11-23T09:57:53.370Z,56.56
2022-11-23T09:58:52.359Z,58.33
2022-11-23T09:59:52.343Z,58.33
2022-11-23T10:00:52.327Z,51.24
2022-11-23T10:01:52.431Z,54.14
2022-11-23T10:02:52.358Z,61.39
2022-11-23T10:03:52.296Z,54.79
2022-11-23T10:04:52.353Z,47.21
2022-11-23T10:05:52.282Z,46.73
2022-11-23T10:06:52.281Z,48.02
2022-11-23T10:07:52.287Z,62.52
2022-11-23T10:08:52.261Z,49.95
2022-11-23T10:09:52.303Z,56.40
2022-11-23T10:10:52.262Z,56.56
2022-11-23T10:11:52.250Z,59.94
2022-11-23T10:12:52.233Z,46.73
2022-11-23T10:13:52.230Z,61.87
2022-11-23T10:14:53.230Z,57.52
2022-11-23T10:15:52.219Z,59.94
2022-11-23T10:16:52.841Z,51.08
2022-11-23T10:17:52.249Z,50.11
2022-11-23T10:18:52.202Z,49.31
2022-11-23T10:19:52.189Z,55.11
2022-11-23T10:20:52.205Z,49.15
2022-11-23T10:21:52.173Z,51.08
2022-11-23T10:22:52.194Z,57.52
2022-11-23T10:23:52.159Z,53.33
2022-11-23T10:24:52.205Z,47.37
2022-11-23T10:25:52.172Z,59.62
2022-11-23T10:26:52.182Z,62.68
2022-11-23T10:27:52.225Z,60.59
2022-11-23T10:28:52.125Z,49.79
2022-11-23T10:29:52.120Z,55.91
2022-11-23T10:30:52.177Z,48.82
2022-11-23T10:31:56.822Z,59.30
2022-11-23T10:32:54.102Z,47.70
2022-11-23T10:33:52.087Z,63.49
2022-11-23T10:34:52.153Z,53.17
2022-11-23T10:35:52.072Z,60.26
2022-11-23T10:36:52.060Z,61.87
2022-11-23T10:37:53.811Z,60.75
2022-11-23T10:38:53.136Z,59.94
2022-11-23T10:39:52.054Z,58.33
2022-11-23T10:40:52.060Z,51.40
2022-11-23T10:41:52.047Z,52.53
2022-11-23T10:42:52.025Z,50.43
2022-11-23T10:43:52.000Z,48.82
2022-11-23T10:44:53.028Z,61.71
2022-11-23T10:45:54.792Z,63.33
2022-11-23T10:46:54.001Z,55.27
2022-11-23T10:47:51.975Z,48.50
2022-11-23T10:48:51.977Z,51.88
2022-11-23T10:49:51.979Z,60.26
2022-11-23T10:50:51.947Z,54.62
2022-11-23T10:51:51.963Z,57.52
2022-11-23T10:52:51.967Z,52.85
2022-11-23T10:53:51.970Z,54.79
2022-11-23T10:54:51.949Z,54.46
2022-11-23T10:55:51.911Z,60.59
2022-11-23T10:56:51.937Z,51.72
2022-11-23T10:57:51.919Z,58.81
2022-11-23T10:58:51.892Z,56.07
2022-11-23T10:59:51.894Z,52.05
2022-11-23T11:00:51.859Z,52.05
2022-11-23T11:01:51.955Z,48.82
2022-11-23T11:02:51.881Z,57.85
2022-11-23T11:03:51.848Z,48.66
2022-11-23T11:04:57.305Z,53.50
2022-11-23T11:06:08.604Z,50.60
2022-11-23T11:06:53.853Z,58.33
2022-11-23T11:07:51.885Z,50.60
2022-11-23T11:08:51.811Z,51.24
2022-11-23T11:09:51.896Z,55.91
2022-11-23T11:10:51.798Z,58.49
2022-11-23T11:11:51.790Z,60.26
2022-11-23T11:12:51.801Z,55.27
2022-11-23T11:13:51.765Z,60.42
2022-11-23T11:14:51.791Z,60.10
2022-11-23T11:15:51.757Z,50.60
2022-11-23T11:16:51.739Z,51.88
2022-11-23T11:17:51.730Z,52.05
2022-11-23T11:18:51.749Z,48.82
2022-11-23T11:19:51.721Z,55.43
2022-11-23T11:20:52.231Z,53.82
2022-11-23T11:21:52.290Z,48.98
2022-11-23T11:22:52.354Z,53.17
2022-11-23T11:23:51.701Z,57.52
2022-11-23T11:24:51.742Z,62.68
2022-11-23T11:25:51.663Z,57.04
2022-11-23T11:26:51.670Z,48.34
2022-11-23T11:27:51.665Z,59.78
2022-11-23T11:28:51.743Z,56.56
2022-11-23T11:29:51.669Z,54.79
2022-11-23T11:30:51.625Z,62.36
2022-11-23T11:31:51.609Z,59.46
2022-11-23T11:32:51.608Z,58.33
2022-11-23T11:33:51.642Z,47.70
2022-11-23T11:34:51.653Z,56.56
2022-11-23T11:35:51.659Z,56.88
2022-11-23T11:36:51.594Z,54.62
2022-11-23T11:37:51.620Z,51.40
2022-11-23T11:39:14.943Z,49.63
2022-11-23T11:39:53.574Z,57.36
2022-11-23T11:40:51.544Z,48.18
2022-11-23T11:41:51.572Z,63.49
2022-11-23T11:42:51.542Z,58.81
2022-11-23T11:43:53.158Z,57.20
2022-11-23T11:44:51.771Z,57.52
2022-11-23T11:46:21.517Z,51.72
2022-11-23T11:46:53.507Z,63.81
2022-11-23T11:47:51.600Z,51.56
2022-11-23T11:48:51.497Z,53.66
2022-11-23T11:49:51.486Z,51.88
2022-11-23T11:50:51.474Z,51.72
2022-11-23T11:51:51.499Z,53.82
2022-11-23T11:52:51.538Z,52.21
2022-11-23T11:53:51.439Z,59.78
2022-11-23T11:54:51.437Z,55.27
2022-11-23T11:55:51.453Z,61.39
2022-11-23T11:56:51.446Z,58.81
2022-11-23T11:57:51.643Z,56.07
2022-11-23T11:58:51.426Z,48.50
2022-11-23T11:59:51.431Z,48.02
2022-11-23T12:00:51.400Z,52.69
2022-11-23T12:01:51.426Z,53.17
2022-11-23T12:02:52.363Z,53.01
2022-11-23T12:03:51.428Z,53.17
2022-11-23T12:04:51.373Z,56.56
2022-11-23T12:05:51.359Z,55.11
2022-11-23T12:06:51.352Z,62.36
2022-11-23T12:07:51.479Z,61.71
2022-11-23T12:08:51.428Z,59.46
2022-11-23T12:09:51.393Z,53.66
2022-11-23T12:10:51.319Z,59.14
2022-11-23T12:11:51.360Z,62.04
2022-11-23T12:12:51.312Z,51.56
2022-11-23T12:13:51.326Z,48.98
2022-11-23T12:14:51.488Z,54.14
2022-11-23T12:15:51.275Z,48.82
2022-11-23T12:17:10.208Z,49.79
2022-11-23T12:17:53.285Z,57.20
2022-11-23T12:18:51.508Z,50.11
2022-11-23T12:19:51.312Z,56.07
2022-11-23T12:20:51.255Z,54.62
2022-11-23T12:21:54.486Z,64.13
2022-11-23T12:22:52.341Z,50.92
2022-11-23T12:23:51.250Z,56.88
2022-11-23T12:24:51.195Z,58.65
2022-11-23T12:25:51.212Z,48.66
2022-11-23T12:26:51.216Z,48.66
2022-11-23T12:27:51.237Z,62.52
2022-11-23T12:28:51.210Z,59.30
2022-11-23T12:29:51.209Z,52.37
2022-11-23T12:30:51.887Z,54.14
2022-11-23T12:31:51.171Z,57.36
2022-11-23T12:32:51.154Z,61.87
2022-11-23T12:34:52.306Z,52.53
2022-11-23T12:35:51.123Z,49.79
2022-11-23T12:36:51.144Z,53.33
2022-11-23T12:37:51.140Z,59.30
2022-11-23T12:38:51.127Z,61.39
2022-11-23T12:39:51.126Z,54.95
2022-11-23T12:40:51.131Z,50.92
2022-11-23T12:41:51.185Z,63.49
2022-11-23T12:42:51.975Z,55.75
2022-11-23T12:43:51.832Z,47.70
2022-11-23T12:44:51.872Z,62.84
2022-11-23T12:45:51.072Z,53.01
2022-11-23T12:46:51.096Z,60.10
2022-11-23T12:47:51.069Z,55.91
2022-11-23T12:48:51.024Z,47.05
2022-11-23T12:49:51.132Z,50.92
2022-11-23T12:50:51.034Z,53.33
2022-11-23T12:51:51.109Z,49.95
2022-11-23T12:52:51.020Z,50.76
2022-11-23T12:53:51.097Z,48.34
2022-11-23T12:54:50.984Z,60.59
2022-11-23T12:55:50.996Z,63.81
2022-11-23T12:56:50.986Z,52.85
2022-11-23T12:57:50.992Z,60.26
2022-11-23T12:58:51.064Z,50.43
2022-11-23T12:59:50.926Z,55.59
2022-11-23T13:00:51.006Z,52.85
2022-11-23T13:01:51.001Z,58.65
2022-11-23T13:02:50.911Z,49.47
2022-11-23T13:03:50.982Z,63.33
2022-11-23T13:04:50.924Z,63.33
2022-11-23T13:05:50.886Z,52.37
2022-11-23T13:07:20.353Z,60.59
2022-11-23T13:07:52.992Z,54.95
2022-11-23T13:08:50.885Z,61.39
2022-11-23T13:09:50.884Z,59.78
2022-11-23T13:10:50.856Z,51.08
2022-11-23T13:11:51.871Z,53.98
2022-11-23T13:12:50.865Z,50.60
2022-11-23T13:13:50.873Z,61.71